sensor_id;sensor_type;location;lat;lon;timestamp;temperature;humidity
6666;DHT22;3369;49.906;8.598;2023-05-18T00:01:48;7.40;99.90
6666;DHT22;3369;49.906;8.598;2023-05-18T00:04:18;7.30;99.90
6666;DHT22;3369;49.906;8.598;2023-05-18T00:06:49;7.30;99.90
6666;DHT22;3369;49.906;8.598;2023-05-18T00:09:22;7.30;99.90
6666;DHT22;3369;49.906;8.598;2023-05-18T00:11:48;7.20;99.90
6666;DHT22;3369;49.906;8.598;2023-05-18T00:14:13;7.20;99.90
6666;DHT22;3369;49.906;8.598;2023-05-18T00:16:39;7.20;99.90
6666;DHT22;3369;49.906;8.598;2023-05-18T00:19:04;7.10;99.90
6666;DHT22;3369;49.906;8.598;2023-05-18T00:21:30;7.10;99.90
6666;DHT22;3369;49.906;8.598;2023-05-18T00:23:57;7.10;99.90
6666;DHT22;3369;49.906;8.598;2023-05-18T00:26:23;7.00;99.90
6666;DHT22;3369;49.906;8.598;2023-05-18T00:28:49;7.10;99.90
6666;DHT22;3369;49.906;8.598;2023-05-18T00:31:14;7.10;99.90
6666;DHT22;3369;49.906;8.598;2023-05-18T00:33:40;7.10;99.90
6666;DHT22;3369;49.906;8.598;2023-05-18T00:36:06;7.10;99.90
6666;DHT22;3369;49.906;8.598;2023-05-18T00:38:32;7.10;99.90
6666;DHT22;3369;49.906;8.598;2023-05-18T00:40:57;7.10;99.90
6666;DHT22;3369;49.906;8.598;2023-05-18T00:43:23;7.10;99.90
6666;DHT22;3369;49.906;8.598;2023-05-18T00:45:49;7.10;99.90
6666;DHT22;3369;49.906;8.598;2023-05-18T00:48:14;7.10;99.90
6666;DHT22;3369;49.906;8.598;2023-05-18T00:50:40;7.10;99.90
6666;DHT22;3369;49.906;8.598;2023-05-18T00:53:06;7.10;99.90
6666;DHT22;3369;49.906;8.598;2023-05-18T00:55:32;7.10;99.90
6666;DHT22;3369;49.906;8.598;2023-05-18T00:57:58;7.00;99.90
6666;DHT22;3369;49.906;8.598;2023-05-18T01:00:27;7.00;99.90
6666;DHT22;3369;49.906;8.598;2023-05-18T01:02:53;7.00;99.90
6666;DHT22;3369;49.906;8.598;2023-05-18T01:05:19;6.90;99.90
6666;DHT22;3369;49.906;8.598;2023-05-18T01:07:47;6.90;99.90
6666;DHT22;3369;49.906;8.598;2023-05-18T01:30:17;6.70;99.90
6666;DHT22;3369;49.906;8.598;2023-05-18T01:32:45;6.80;99.90
6666;DHT22;3369;49.906;8.598;2023-05-18T01:35:11;6.70;99.90
6666;DHT22;3369;49.906;8.598;2023-05-18T01:37:36;6.70;99.90
6666;DHT22;3369;49.906;8.598;2023-05-18T01:40:03;6.70;99.90
6666;DHT22;3369;49.906;8.598;2023-05-18T01:42:30;6.70;99.90
6666;DHT22;3369;49.906;8.598;2023-05-18T01:45:04;6.70;99.90
6666;DHT22;3369;49.906;8.598;2023-05-18T01:47:32;6.70;99.90
6666;DHT22;3369;49.906;8.598;2023-05-18T01:50:03;6.70;99.90
6666;DHT22;3369;49.906;8.598;2023-05-18T01:55:07;6.70;99.90
6666;DHT22;3369;49.906;8.598;2023-05-18T01:57:35;6.70;99.90
6666;DHT22;3369;49.906;8.598;2023-05-18T02:00:05;6.70;99.90
6666;DHT22;3369;49.906;8.598;2023-05-18T02:02:34;6.70;99.90
6666;DHT22;3369;49.906;8.598;2023-05-18T02:05:00;6.70;99.90
6666;DHT22;3369;49.906;8.598;2023-05-18T02:07:26;6.70;99.90
6666;DHT22;3369;49.906;8.598;2023-05-18T02:09:52;6.60;99.90
6666;DHT22;3369;49.906;8.598;2023-05-18T02:12:18;6.70;99.90
6666;DHT22;3369;49.906;8.598;2023-05-18T02:14:43;6.60;99.90
6666;DHT22;3369;49.906;8.598;2023-05-18T02:17:09;6.60;99.90
6666;DHT22;3369;49.906;8.598;2023-05-18T02:19:36;6.60;99.90
6666;DHT22;3369;49.906;8.598;2023-05-18T02:22:06;6.60;99.90
6666;DHT22;3369;49.906;8.598;2023-05-18T02:24:32;6.60;99.90
6666;DHT22;3369;49.906;8.598;2023-05-18T02:26:58;6.60;99.90
6666;DHT22;3369;49.906;8.598;2023-05-18T02:29:24;6.60;99.90
6666;DHT22;3369;49.906;8.598;2023-05-18T02:31:49;6.50;99.90
6666;DHT22;3369;49.906;8.598;2023-05-18T02:34:15;6.50;99.90
6666;DHT22;3369;49.906;8.598;2023-05-18T02:36:42;6.50;99.90
6666;DHT22;3369;49.906;8.598;2023-05-18T02:39:10;6.50;99.90
6666;DHT22;3369;49.906;8.598;2023-05-18T02:41:37;6.50;99.90
6666;DHT22;3369;49.906;8.598;2023-05-18T02:44:04;6.50;99.90
6666;DHT22;3369;49.906;8.598;2023-05-18T02:46:30;6.40;99.90
6666;DHT22;3369;49.906;8.598;2023-05-18T02:48:57;6.40;99.90
6666;DHT22;3369;49.906;8.598;2023-05-18T02:51:23;6.40;99.90
6666;DHT22;3369;49.906;8.598;2023-05-18T02:53:49;6.40;99.90
6666;DHT22;3369;49.906;8.598;2023-05-18T02:56:15;6.40;99.90
6666;DHT22;3369;49.906;8.598;2023-05-18T02:58:42;6.40;99.90
6666;DHT22;3369;49.906;8.598;2023-05-18T03:01:08;6.40;99.90
6666;DHT22;3369;49.906;8.598;2023-05-18T03:03:37;6.30;99.90
6666;DHT22;3369;49.906;8.598;2023-05-18T03:06:03;6.30;99.90
6666;DHT22;3369;49.906;8.598;2023-05-18T03:08:30;6.30;99.90
6666;DHT22;3369;49.906;8.598;2023-05-18T03:10:57;6.30;99.90
6666;DHT22;3369;49.906;8.598;2023-05-18T03:13:23;6.30;99.90
6666;DHT22;3369;49.906;8.598;2023-05-18T03:15:48;6.30;99.90
6666;DHT22;3369;49.906;8.598;2023-05-18T03:18:15;6.30;99.90
6666;DHT22;3369;49.906;8.598;2023-05-18T03:20:41;6.20;99.90
6666;DHT22;3369;49.906;8.598;2023-05-18T03:23:08;6.20;99.90
6666;DHT22;3369;49.906;8.598;2023-05-18T03:25:34;6.20;99.90
6666;DHT22;3369;49.906;8.598;2023-05-18T03:28:02;6.20;99.90
6666;DHT22;3369;49.906;8.598;2023-05-18T03:30:30;6.20;99.90
6666;DHT22;3369;49.906;8.598;2023-05-18T03:32:57;6.20;99.90
6666;DHT22;3369;49.906;8.598;2023-05-18T03:35:23;6.20;99.90
6666;DHT22;3369;49.906;8.598;2023-05-18T03:37:49;6.20;99.90
6666;DHT22;3369;49.906;8.598;2023-05-18T03:40:15;6.20;99.90
6666;DHT22;3369;49.906;8.598;2023-05-18T03:42:41;6.20;99.90
6666;DHT22;3369;49.906;8.598;2023-05-18T03:45:08;6.10;99.90
6666;DHT22;3369;49.906;8.598;2023-05-18T03:47:34;6.20;99.90
6666;DHT22;3369;49.906;8.598;2023-05-18T03:50:01;6.20;99.90
6666;DHT22;3369;49.906;8.598;2023-05-18T03:52:26;6.10;99.90
6666;DHT22;3369;49.906;8.598;2023-05-18T03:54:54;6.10;99.90
6666;DHT22;3369;49.906;8.598;2023-05-18T03:57:20;6.20;99.90
6666;DHT22;3369;49.906;8.598;2023-05-18T03:59:45;6.10;99.90
6666;DHT22;3369;49.906;8.598;2023-05-18T04:02:11;6.10;99.90
6666;DHT22;3369;49.906;8.598;2023-05-18T04:04:38;6.10;99.90
6666;DHT22;3369;49.906;8.598;2023-05-18T04:07:11;6.10;99.90
6666;DHT22;3369;49.906;8.598;2023-05-18T04:09:38;6.10;99.90
6666;DHT22;3369;49.906;8.598;2023-05-18T04:12:04;6.10;99.90
6666;DHT22;3369;49.906;8.598;2023-05-18T04:14:30;6.10;99.90
6666;DHT22;3369;49.906;8.598;2023-05-18T04:16:58;6.00;99.90
6666;DHT22;3369;49.906;8.598;2023-05-18T04:19:30;6.00;99.90
6666;DHT22;3369;49.906;8.598;2023-05-18T04:21:55;6.10;99.90
6666;DHT22;3369;49.906;8.598;2023-05-18T04:24:21;6.00;99.90
6666;DHT22;3369;49.906;8.598;2023-05-18T04:26:47;6.10;99.90
6666;DHT22;3369;49.906;8.598;2023-05-18T04:29:12;6.10;99.90
6666;DHT22;3369;49.906;8.598;2023-05-18T04:31:39;6.10;99.90
6666;DHT22;3369;49.906;8.598;2023-05-18T04:34:07;6.20;99.90
6666;DHT22;3369;49.906;8.598;2023-05-18T04:36:33;6.20;99.90
6666;DHT22;3369;49.906;8.598;2023-05-18T04:39:00;6.30;99.90
6666;DHT22;3369;49.906;8.598;2023-05-18T04:41:28;6.30;99.90
6666;DHT22;3369;49.906;8.598;2023-05-18T04:43:54;6.30;99.90
6666;DHT22;3369;49.906;8.598;2023-05-18T04:46:19;6.40;99.90
6666;DHT22;3369;49.906;8.598;2023-05-18T04:48:48;6.40;99.90
6666;DHT22;3369;49.906;8.598;2023-05-18T04:51:15;6.50;99.90
6666;DHT22;3369;49.906;8.598;2023-05-18T04:53:42;6.50;99.90
6666;DHT22;3369;49.906;8.598;2023-05-18T04:56:10;6.60;99.90
6666;DHT22;3369;49.906;8.598;2023-05-18T04:58:38;6.60;99.90
6666;DHT22;3369;49.906;8.598;2023-05-18T05:01:03;6.70;99.90
6666;DHT22;3369;49.906;8.598;2023-05-18T05:03:31;6.80;99.90
6666;DHT22;3369;49.906;8.598;2023-05-18T05:05:56;6.80;99.90
6666;DHT22;3369;49.906;8.598;2023-05-18T05:08:22;6.90;99.90
6666;DHT22;3369;49.906;8.598;2023-05-18T05:10:47;6.90;99.90
6666;DHT22;3369;49.906;8.598;2023-05-18T05:13:13;7.00;99.90
6666;DHT22;3369;49.906;8.598;2023-05-18T05:15:39;7.00;99.90
6666;DHT22;3369;49.906;8.598;2023-05-18T05:18:04;7.10;99.90
6666;DHT22;3369;49.906;8.598;2023-05-18T05:20:30;7.10;99.90
6666;DHT22;3369;49.906;8.598;2023-05-18T05:22:56;7.20;99.90
6666;DHT22;3369;49.906;8.598;2023-05-18T05:25:22;7.20;99.90
6666;DHT22;3369;49.906;8.598;2023-05-18T05:27:47;7.30;99.90
6666;DHT22;3369;49.906;8.598;2023-05-18T05:30:13;7.40;99.90
6666;DHT22;3369;49.906;8.598;2023-05-18T05:32:39;7.40;99.90
6666;DHT22;3369;49.906;8.598;2023-05-18T05:35:04;7.50;99.90
6666;DHT22;3369;49.906;8.598;2023-05-18T05:37:30;7.60;99.90
6666;DHT22;3369;49.906;8.598;2023-05-18T05:39:56;7.70;99.90
6666;DHT22;3369;49.906;8.598;2023-05-18T05:42:22;7.80;99.90
6666;DHT22;3369;49.906;8.598;2023-05-18T05:44:47;8.00;99.90
6666;DHT22;3369;49.906;8.598;2023-05-18T05:47:13;8.30;99.90
6666;DHT22;3369;49.906;8.598;2023-05-18T05:49:38;8.60;99.90
6666;DHT22;3369;49.906;8.598;2023-05-18T05:52:04;9.00;99.90
6666;DHT22;3369;49.906;8.598;2023-05-18T05:54:30;9.50;99.90
6666;DHT22;3369;49.906;8.598;2023-05-18T05:56:56;9.90;99.90
6666;DHT22;3369;49.906;8.598;2023-05-18T05:59:21;10.30;99.90
6666;DHT22;3369;49.906;8.598;2023-05-18T06:01:47;10.70;99.90
6666;DHT22;3369;49.906;8.598;2023-05-18T06:04:13;11.20;99.90
6666;DHT22;3369;49.906;8.598;2023-05-18T06:06:40;11.60;99.90
6666;DHT22;3369;49.906;8.598;2023-05-18T06:09:06;11.90;99.90
6666;DHT22;3369;49.906;8.598;2023-05-18T06:11:32;12.30;99.90
6666;DHT22;3369;49.906;8.598;2023-05-18T06:13:57;12.60;99.90
6666;DHT22;3369;49.906;8.598;2023-05-18T06:16:24;13.00;99.90
6666;DHT22;3369;49.906;8.598;2023-05-18T06:18:50;13.30;99.90
6666;DHT22;3369;49.906;8.598;2023-05-18T06:21:16;13.70;99.90
6666;DHT22;3369;49.906;8.598;2023-05-18T06:23:42;13.90;99.90
6666;DHT22;3369;49.906;8.598;2023-05-18T06:26:09;14.10;99.90
6666;DHT22;3369;49.906;8.598;2023-05-18T06:28:35;14.20;99.90
6666;DHT22;3369;49.906;8.598;2023-05-18T06:31:01;14.40;99.90
6666;DHT22;3369;49.906;8.598;2023-05-18T06:33:27;14.50;99.90
6666;DHT22;3369;49.906;8.598;2023-05-18T06:35:53;14.60;99.90
6666;DHT22;3369;49.906;8.598;2023-05-18T06:38:18;14.70;99.90
6666;DHT22;3369;49.906;8.598;2023-05-18T06:40:44;14.80;99.90
6666;DHT22;3369;49.906;8.598;2023-05-18T06:43:10;14.90;99.90
6666;DHT22;3369;49.906;8.598;2023-05-18T06:45:35;15.00;99.70
6666;DHT22;3369;49.906;8.598;2023-05-18T06:48:01;15.00;99.50
6666;DHT22;3369;49.906;8.598;2023-05-18T06:50:27;15.10;98.50
6666;DHT22;3369;49.906;8.598;2023-05-18T07:13:35;14.70;94.10
6666;DHT22;3369;49.906;8.598;2023-05-18T07:16:01;14.50;94.60
6666;DHT22;3369;49.906;8.598;2023-05-18T07:18:27;14.40;94.90
6666;DHT22;3369;49.906;8.598;2023-05-18T07:20:52;14.50;95.00
6666;DHT22;3369;49.906;8.598;2023-05-18T07:23:18;14.40;94.70
6666;DHT22;3369;49.906;8.598;2023-05-18T07:25:43;14.50;94.70
6666;DHT22;3369;49.906;8.598;2023-05-18T07:28:09;14.60;94.80
6666;DHT22;3369;49.906;8.598;2023-05-18T07:30:35;14.70;94.70
6666;DHT22;3369;49.906;8.598;2023-05-18T07:33:00;14.70;94.60
6666;DHT22;3369;49.906;8.598;2023-05-18T07:35:26;14.70;94.60
6666;DHT22;3369;49.906;8.598;2023-05-18T07:37:52;14.80;94.60
6666;DHT22;3369;49.906;8.598;2023-05-18T07:40:19;14.80;94.50
6666;DHT22;3369;49.906;8.598;2023-05-18T07:42:45;14.90;94.60
6666;DHT22;3369;49.906;8.598;2023-05-18T07:45:11;14.90;94.40
6666;DHT22;3369;49.906;8.598;2023-05-18T07:47:37;15.00;94.40
6666;DHT22;3369;49.906;8.598;2023-05-18T07:50:03;15.10;94.30
6666;DHT22;3369;49.906;8.598;2023-05-18T07:52:28;15.20;94.20
6666;DHT22;3369;49.906;8.598;2023-05-18T07:54:54;15.20;94.10
6666;DHT22;3369;49.906;8.598;2023-05-18T07:57:21;15.30;93.90
6666;DHT22;3369;49.906;8.598;2023-05-18T07:59:46;15.40;93.60
6666;DHT22;3369;49.906;8.598;2023-05-18T08:02:12;15.50;93.60
6666;DHT22;3369;49.906;8.598;2023-05-18T08:04:38;15.50;93.50
6666;DHT22;3369;49.906;8.598;2023-05-18T08:07:03;15.70;93.40
6666;DHT22;3369;49.906;8.598;2023-05-18T08:09:29;15.80;93.20
6666;DHT22;3369;49.906;8.598;2023-05-18T08:11:56;15.80;92.80
6666;DHT22;3369;49.906;8.598;2023-05-18T08:14:21;15.80;92.80
6666;DHT22;3369;49.906;8.598;2023-05-18T08:16:47;16.00;92.90
6666;DHT22;3369;49.906;8.598;2023-05-18T08:19:13;16.00;92.70
6666;DHT22;3369;49.906;8.598;2023-05-18T08:21:39;16.10;92.80
6666;DHT22;3369;49.906;8.598;2023-05-18T08:24:05;16.20;92.90
6666;DHT22;3369;49.906;8.598;2023-05-18T08:26:31;16.30;92.80
6666;DHT22;3369;49.906;8.598;2023-05-18T08:28:57;16.40;92.70
6666;DHT22;3369;49.906;8.598;2023-05-18T08:31:23;16.50;92.40
6666;DHT22;3369;49.906;8.598;2023-05-18T08:33:48;16.50;92.40
6666;DHT22;3369;49.906;8.598;2023-05-18T08:36:15;16.60;92.20
6666;DHT22;3369;49.906;8.598;2023-05-18T08:38:41;16.60;92.10
6666;DHT22;3369;49.906;8.598;2023-05-18T08:41:28;16.80;92.30
6666;DHT22;3369;49.906;8.598;2023-05-18T08:44:19;16.90;92.20
6666;DHT22;3369;49.906;8.598;2023-05-18T08:46:48;17.00;91.40
6666;DHT22;3369;49.906;8.598;2023-05-18T08:49:17;17.00;91.00
6666;DHT22;3369;49.906;8.598;2023-05-18T08:51:46;17.10;90.90
6666;DHT22;3369;49.906;8.598;2023-05-18T08:54:19;17.20;89.30
6666;DHT22;3369;49.906;8.598;2023-05-18T08:56:46;17.10;90.10
6666;DHT22;3369;49.906;8.598;2023-05-18T08:59:14;17.20;90.70
6666;DHT22;3369;49.906;8.598;2023-05-18T09:01:40;17.20;90.60
6666;DHT22;3369;49.906;8.598;2023-05-18T09:04:07;17.40;90.70
6666;DHT22;3369;49.906;8.598;2023-05-18T09:06:33;17.50;90.60
6666;DHT22;3369;49.906;8.598;2023-05-18T09:09:00;17.70;90.70
6666;DHT22;3369;49.906;8.598;2023-05-18T09:11:31;17.80;90.80
6666;DHT22;3369;49.906;8.598;2023-05-18T09:13:59;17.90;90.60
6666;DHT22;3369;49.906;8.598;2023-05-18T09:16:25;18.10;90.50
6666;DHT22;3369;49.906;8.598;2023-05-18T09:18:51;18.10;90.20
6666;DHT22;3369;49.906;8.598;2023-05-18T09:21:17;18.10;90.00
6666;DHT22;3369;49.906;8.598;2023-05-18T09:23:43;18.10;89.50
6666;DHT22;3369;49.906;8.598;2023-05-18T09:26:10;18.10;89.70
6666;DHT22;3369;49.906;8.598;2023-05-18T09:28:41;18.00;89.50
6666;DHT22;3369;49.906;8.598;2023-05-18T09:31:09;18.10;89.90
6666;DHT22;3369;49.906;8.598;2023-05-18T09:33:42;18.20;89.40
6666;DHT22;3369;49.906;8.598;2023-05-18T09:36:09;18.40;89.60
6666;DHT22;3369;49.906;8.598;2023-05-18T09:38:41;18.40;88.70
6666;DHT22;3369;49.906;8.598;2023-05-18T09:43:38;18.20;87.90
6666;DHT22;3369;49.906;8.598;2023-05-18T09:46:08;18.30;87.60
6666;DHT22;3369;49.906;8.598;2023-05-18T09:48:35;18.40;87.80
6666;DHT22;3369;49.906;8.598;2023-05-18T09:51:01;18.40;87.60
6666;DHT22;3369;49.906;8.598;2023-05-18T09:53:28;18.60;88.00
6666;DHT22;3369;49.906;8.598;2023-05-18T09:55:54;18.80;87.40
6666;DHT22;3369;49.906;8.598;2023-05-18T09:58:20;18.90;87.20
6666;DHT22;3369;49.906;8.598;2023-05-18T10:00:48;19.00;86.90
6666;DHT22;3369;49.906;8.598;2023-05-18T10:03:20;19.10;86.30
6666;DHT22;3369;49.906;8.598;2023-05-18T10:05:48;18.80;84.00
6666;DHT22;3369;49.906;8.598;2023-05-18T10:08:14;18.70;81.20
6666;DHT22;3369;49.906;8.598;2023-05-18T10:10:43;18.60;83.00
6666;DHT22;3369;49.906;8.598;2023-05-18T10:13:13;18.70;84.30
6666;DHT22;3369;49.906;8.598;2023-05-18T10:15:46;18.80;84.50
6666;DHT22;3369;49.906;8.598;2023-05-18T10:18:12;19.00;84.90
6666;DHT22;3369;49.906;8.598;2023-05-18T10:20:42;19.30;85.00
6666;DHT22;3369;49.906;8.598;2023-05-18T10:23:08;19.50;84.80
6666;DHT22;3369;49.906;8.598;2023-05-18T10:25:36;19.70;84.40
6666;DHT22;3369;49.906;8.598;2023-05-18T10:28:05;19.80;84.20
6666;DHT22;3369;49.906;8.598;2023-05-18T10:30:31;19.80;84.40
6666;DHT22;3369;49.906;8.598;2023-05-18T10:32:58;19.70;83.10
6666;DHT22;3369;49.906;8.598;2023-05-18T10:35:26;19.40;82.90
6666;DHT22;3369;49.906;8.598;2023-05-18T10:37:54;19.30;82.70
6666;DHT22;3369;49.906;8.598;2023-05-18T10:40:20;19.20;82.60
6666;DHT22;3369;49.906;8.598;2023-05-18T10:42:48;19.10;81.30
6666;DHT22;3369;49.906;8.598;2023-05-18T10:45:15;19.20;81.90
6666;DHT22;3369;49.906;8.598;2023-05-18T10:47:42;19.30;81.30
6666;DHT22;3369;49.906;8.598;2023-05-18T10:50:08;19.30;81.60
6666;DHT22;3369;49.906;8.598;2023-05-18T10:52:36;19.50;80.20
6666;DHT22;3369;49.906;8.598;2023-05-18T10:55:02;19.50;76.30
6666;DHT22;3369;49.906;8.598;2023-05-18T10:57:41;19.50;76.30
6666;DHT22;3369;49.906;8.598;2023-05-18T11:00:09;19.60;77.20
6666;DHT22;3369;49.906;8.598;2023-05-18T11:02:37;19.80;77.40
6666;DHT22;3369;49.906;8.598;2023-05-18T11:05:05;19.90;77.50
6666;DHT22;3369;49.906;8.598;2023-05-18T11:07:31;20.00;77.20
6666;DHT22;3369;49.906;8.598;2023-05-18T11:10:00;20.00;74.00
6666;DHT22;3369;49.906;8.598;2023-05-18T11:12:26;19.90;72.30
6666;DHT22;3369;49.906;8.598;2023-05-18T11:14:53;19.70;71.40
6666;DHT22;3369;49.906;8.598;2023-05-18T11:17:23;19.70;74.10
6666;DHT22;3369;49.906;8.598;2023-05-18T11:22:49;19.90;75.60
6666;DHT22;3369;49.906;8.598;2023-05-18T11:25:35;19.90;74.40
6666;DHT22;3369;49.906;8.598;2023-05-18T11:28:07;19.90;73.50
6666;DHT22;3369;49.906;8.598;2023-05-18T11:33:08;19.80;70.00
6666;DHT22;3369;49.906;8.598;2023-05-18T11:35:46;19.60;68.40
6666;DHT22;3369;49.906;8.598;2023-05-18T11:38:18;19.60;70.00
6666;DHT22;3369;49.906;8.598;2023-05-18T11:40:46;19.60;69.60
6666;DHT22;3369;49.906;8.598;2023-05-18T11:43:24;19.50;69.00
6666;DHT22;3369;49.906;8.598;2023-05-18T11:45:54;19.60;69.80
6666;DHT22;3369;49.906;8.598;2023-05-18T11:48:24;19.70;70.50
6666;DHT22;3369;49.906;8.598;2023-05-18T11:50:53;19.80;70.60
6666;DHT22;3369;49.906;8.598;2023-05-18T11:53:22;19.90;71.10
6666;DHT22;3369;49.906;8.598;2023-05-18T11:55:51;20.00;69.30
6666;DHT22;3369;49.906;8.598;2023-05-18T11:58:19;20.10;69.60
6666;DHT22;3369;49.906;8.598;2023-05-18T12:00:47;20.10;69.80
6666;DHT22;3369;49.906;8.598;2023-05-18T12:03:13;20.20;69.10
6666;DHT22;3369;49.906;8.598;2023-05-18T12:05:40;20.20;69.70
6666;DHT22;3369;49.906;8.598;2023-05-18T12:08:19;20.30;70.40
6666;DHT22;3369;49.906;8.598;2023-05-18T12:10:47;20.40;71.00
6666;DHT22;3369;49.906;8.598;2023-05-18T12:13:14;20.60;71.60
6666;DHT22;3369;49.906;8.598;2023-05-18T12:15:42;20.70;72.10
6666;DHT22;3369;49.906;8.598;2023-05-18T12:18:12;20.90;72.10
6666;DHT22;3369;49.906;8.598;2023-05-18T12:20:40;21.00;71.60
6666;DHT22;3369;49.906;8.598;2023-05-18T12:23:06;20.90;70.80
6666;DHT22;3369;49.906;8.598;2023-05-18T12:25:32;20.70;70.60
6666;DHT22;3369;49.906;8.598;2023-05-18T12:27:57;20.40;70.70
6666;DHT22;3369;49.906;8.598;2023-05-18T12:30:25;20.30;71.30
6666;DHT22;3369;49.906;8.598;2023-05-18T12:32:59;20.40;72.30
6666;DHT22;3369;49.906;8.598;2023-05-18T12:35:27;20.50;72.10
6666;DHT22;3369;49.906;8.598;2023-05-18T12:37:53;20.60;72.10
6666;DHT22;3369;49.906;8.598;2023-05-18T12:40:25;20.50;71.80
6666;DHT22;3369;49.906;8.598;2023-05-18T12:42:51;20.30;71.30
6666;DHT22;3369;49.906;8.598;2023-05-18T12:45:19;20.20;70.70
6666;DHT22;3369;49.906;8.598;2023-05-18T12:47:45;20.10;70.90
6666;DHT22;3369;49.906;8.598;2023-05-18T12:50:11;20.00;71.00
6666;DHT22;3369;49.906;8.598;2023-05-18T12:52:38;20.00;71.20
6666;DHT22;3369;49.906;8.598;2023-05-18T12:55:07;19.90;70.80
6666;DHT22;3369;49.906;8.598;2023-05-18T12:57:36;19.80;70.70
6666;DHT22;3369;49.906;8.598;2023-05-18T13:00:06;19.80;71.50
6666;DHT22;3369;49.906;8.598;2023-05-18T13:02:36;19.90;71.70
6666;DHT22;3369;49.906;8.598;2023-05-18T13:07:43;19.90;71.00
6666;DHT22;3369;49.906;8.598;2023-05-18T13:30:16;20.20;70.20
6666;DHT22;3369;49.906;8.598;2023-05-18T13:32:42;20.20;71.60
6666;DHT22;3369;49.906;8.598;2023-05-18T13:35:08;20.20;72.70
6666;DHT22;3369;49.906;8.598;2023-05-18T13:37:34;20.20;72.30
6666;DHT22;3369;49.906;8.598;2023-05-18T13:39:59;20.30;71.90
6666;DHT22;3369;49.906;8.598;2023-05-18T13:42:25;20.40;73.00
6666;DHT22;3369;49.906;8.598;2023-05-18T13:44:51;20.40;73.00
6666;DHT22;3369;49.906;8.598;2023-05-18T13:47:16;20.30;73.40
6666;DHT22;3369;49.906;8.598;2023-05-18T13:49:42;20.20;73.50
6666;DHT22;3369;49.906;8.598;2023-05-18T13:52:08;20.20;73.10
6666;DHT22;3369;49.906;8.598;2023-05-18T13:54:33;20.10;71.80
6666;DHT22;3369;49.906;8.598;2023-05-18T13:56:59;20.10;67.50
6666;DHT22;3369;49.906;8.598;2023-05-18T13:59:24;20.10;68.50
6666;DHT22;3369;49.906;8.598;2023-05-18T14:01:51;20.10;68.00
6666;DHT22;3369;49.906;8.598;2023-05-18T14:04:17;20.00;65.40
6666;DHT22;3369;49.906;8.598;2023-05-18T14:06:43;20.00;68.00
6666;DHT22;3369;49.906;8.598;2023-05-18T14:09:08;20.00;65.20
6666;DHT22;3369;49.906;8.598;2023-05-18T14:11:34;19.90;64.90
6666;DHT22;3369;49.906;8.598;2023-05-18T14:14:02;19.90;66.30
6666;DHT22;3369;49.906;8.598;2023-05-18T14:16:28;19.80;68.20
6666;DHT22;3369;49.906;8.598;2023-05-18T14:18:54;19.60;69.40
6666;DHT22;3369;49.906;8.598;2023-05-18T14:21:19;19.40;69.30
6666;DHT22;3369;49.906;8.598;2023-05-18T14:23:45;19.20;68.40
6666;DHT22;3369;49.906;8.598;2023-05-18T14:26:12;19.00;67.20
6666;DHT22;3369;49.906;8.598;2023-05-18T14:28:38;18.90;67.90
6666;DHT22;3369;49.906;8.598;2023-05-18T14:31:03;18.80;68.50
6666;DHT22;3369;49.906;8.598;2023-05-18T14:33:29;18.70;69.60
6666;DHT22;3369;49.906;8.598;2023-05-18T14:35:55;18.80;69.70
6666;DHT22;3369;49.906;8.598;2023-05-18T14:38:22;18.90;70.30
6666;DHT22;3369;49.906;8.598;2023-05-18T14:40:51;19.00;70.70
6666;DHT22;3369;49.906;8.598;2023-05-18T14:43:17;19.00;70.30
6666;DHT22;3369;49.906;8.598;2023-05-18T14:45:42;19.10;69.90
6666;DHT22;3369;49.906;8.598;2023-05-18T14:48:08;19.20;69.80
6666;DHT22;3369;49.906;8.598;2023-05-18T14:50:35;19.20;67.90
6666;DHT22;3369;49.906;8.598;2023-05-18T14:53:01;19.30;68.70
6666;DHT22;3369;49.906;8.598;2023-05-18T14:55:26;19.40;69.00
6666;DHT22;3369;49.906;8.598;2023-05-18T14:57:52;19.40;69.80
6666;DHT22;3369;49.906;8.598;2023-05-18T15:00:18;19.30;68.60
6666;DHT22;3369;49.906;8.598;2023-05-18T15:02:43;19.20;66.30
6666;DHT22;3369;49.906;8.598;2023-05-18T15:05:09;19.00;65.10
6666;DHT22;3369;49.906;8.598;2023-05-18T15:07:35;18.90;64.90
6666;DHT22;3369;49.906;8.598;2023-05-18T15:10:02;18.80;65.80
6666;DHT22;3369;49.906;8.598;2023-05-18T15:12:27;18.80;67.00
6666;DHT22;3369;49.906;8.598;2023-05-18T15:14:53;18.80;68.00
6666;DHT22;3369;49.906;8.598;2023-05-18T15:17:19;18.90;68.70
6666;DHT22;3369;49.906;8.598;2023-05-18T15:19:45;18.90;69.50
6666;DHT22;3369;49.906;8.598;2023-05-18T15:22:11;19.00;69.80
6666;DHT22;3369;49.906;8.598;2023-05-18T15:24:37;19.10;70.60
6666;DHT22;3369;49.906;8.598;2023-05-18T15:27:02;19.20;69.60
6666;DHT22;3369;49.906;8.598;2023-05-18T15:29:28;19.20;66.10
6666;DHT22;3369;49.906;8.598;2023-05-18T15:31:54;19.20;64.50
6666;DHT22;3369;49.906;8.598;2023-05-18T15:34:20;19.20;65.90
6666;DHT22;3369;49.906;8.598;2023-05-18T15:36:46;19.00;66.70
6666;DHT22;3369;49.906;8.598;2023-05-18T15:39:12;18.90;67.00
6666;DHT22;3369;49.906;8.598;2023-05-18T15:41:37;18.80;66.80
6666;DHT22;3369;49.906;8.598;2023-05-18T15:44:03;18.60;67.70
6666;DHT22;3369;49.906;8.598;2023-05-18T15:46:29;18.50;68.40
6666;DHT22;3369;49.906;8.598;2023-05-18T15:49:00;18.40;69.00
6666;DHT22;3369;49.906;8.598;2023-05-18T15:51:26;18.30;69.30
6666;DHT22;3369;49.906;8.598;2023-05-18T15:53:52;18.30;69.80
6666;DHT22;3369;49.906;8.598;2023-05-18T15:56:17;18.30;70.10
6666;DHT22;3369;49.906;8.598;2023-05-18T15:58:43;18.30;70.70
6666;DHT22;3369;49.906;8.598;2023-05-18T16:01:09;18.40;71.20
6666;DHT22;3369;49.906;8.598;2023-05-18T16:03:35;18.50;71.40
6666;DHT22;3369;49.906;8.598;2023-05-18T16:06:01;18.60;71.20
6666;DHT22;3369;49.906;8.598;2023-05-18T16:08:26;18.70;71.30
6666;DHT22;3369;49.906;8.598;2023-05-18T16:10:52;18.70;71.50
6666;DHT22;3369;49.906;8.598;2023-05-18T16:13:18;18.70;71.20
6666;DHT22;3369;49.906;8.598;2023-05-18T16:15:44;18.70;71.20
6666;DHT22;3369;49.906;8.598;2023-05-18T16:18:10;18.60;71.10
6666;DHT22;3369;49.906;8.598;2023-05-18T16:20:36;18.50;71.50
6666;DHT22;3369;49.906;8.598;2023-05-18T16:23:02;18.50;71.70
6666;DHT22;3369;49.906;8.598;2023-05-18T16:25:28;18.50;71.70
6666;DHT22;3369;49.906;8.598;2023-05-18T16:27:54;18.50;71.80
6666;DHT22;3369;49.906;8.598;2023-05-18T16:30:20;18.50;71.70
6666;DHT22;3369;49.906;8.598;2023-05-18T16:32:45;18.50;71.10
6666;DHT22;3369;49.906;8.598;2023-05-18T16:35:11;18.40;71.20
6666;DHT22;3369;49.906;8.598;2023-05-18T16:37:37;18.20;71.70
6666;DHT22;3369;49.906;8.598;2023-05-18T16:40:03;18.10;72.50
6666;DHT22;3369;49.906;8.598;2023-05-18T16:42:30;18.00;72.80
6666;DHT22;3369;49.906;8.598;2023-05-18T16:44:56;17.90;73.00
6666;DHT22;3369;49.906;8.598;2023-05-18T16:47:22;17.80;73.10
6666;DHT22;3369;49.906;8.598;2023-05-18T16:49:47;17.80;73.10
6666;DHT22;3369;49.906;8.598;2023-05-18T16:52:13;17.90;73.30
6666;DHT22;3369;49.906;8.598;2023-05-18T16:54:40;18.00;73.60
6666;DHT22;3369;49.906;8.598;2023-05-18T16:57:06;18.10;73.90
6666;DHT22;3369;49.906;8.598;2023-05-18T16:59:32;18.10;73.90
6666;DHT22;3369;49.906;8.598;2023-05-18T17:01:58;18.20;74.20
6666;DHT22;3369;49.906;8.598;2023-05-18T17:04:24;18.20;74.40
6666;DHT22;3369;49.906;8.598;2023-05-18T17:06:51;18.30;74.60
6666;DHT22;3369;49.906;8.598;2023-05-18T17:09:16;18.30;74.70
6666;DHT22;3369;49.906;8.598;2023-05-18T17:11:48;18.30;75.10
6666;DHT22;3369;49.906;8.598;2023-05-18T17:14:14;18.20;75.20
6666;DHT22;3369;49.906;8.598;2023-05-18T17:16:39;18.10;76.30
6666;DHT22;3369;49.906;8.598;2023-05-18T17:19:06;18.00;75.90